Time;durP1;ratioP1;P1;durP2;ratioP2;P2;SDS_P1;SDS_P2;PMS_P1;PMS_P2;Temp;Humidity;BMP_temperature;BMP_pressure;BME280_temperature;BME280_humidity;BME280_pressure;Samples;Min_cycle;Max_cycle;Signal;HPM_P1;HPM_P2
2023/09/06 00:02:18;;;;;;;8.70;7.55;;;18.70;99.90;;;;;;5117871;27;20058;-78
2023/09/06 00:04:45;;;;;;;8.50;7.57;;;18.70;99.90;;;;;;5133709;27;20046;-79
2023/09/06 00:07:11;;;;;;;9.07;8.18;;;18.80;99.90;;;;;;5130547;27;20047;-79
2023/09/06 00:09:37;;;;;;;8.63;7.82;;;18.80;99.90;;;;;;5139350;27;20592;-79
2023/09/06 00:12:03;;;;;;;8.85;7.90;;;18.70;99.90;;;;;;5145861;27;20047;-79
2023/09/06 00:14:29;;;;;;;10.20;9.10;;;18.70;99.90;;;;;;5145137;27;20074;-80
2023/09/06 00:16:55;;;;;;;9.07;8.25;;;18.70;99.90;;;;;;5144446;27;20126;-79
2023/09/06 00:19:21;;;;;;;10.98;8.07;;;18.70;99.90;;;;;;5141203;27;20187;-78
2023/09/06 00:21:47;;;;;;;8.63;7.72;;;18.70;99.90;;;;;;5125689;27;20043;-78
2023/09/06 00:24:14;;;;;;;9.20;8.02;;;18.70;99.90;;;;;;5139218;27;20047;-80
2023/09/06 00:26:40;;;;;;;8.70;7.40;;;18.60;99.90;;;;;;5143180;27;20039;-79
2023/09/06 00:29:09;;;;;;;8.45;7.57;;;18.60;99.90;;;;;;5140673;27;20050;-79
2023/09/06 00:31:35;;;;;;;8.02;6.47;;;18.60;99.90;;;;;;5139132;27;20084;-79
2023/09/06 00:34:01;;;;;;;7.10;5.93;;;18.60;99.90;;;;;;5140347;27;20047;-78
2023/09/06 00:36:29;;;;;;;7.40;6.53;;;18.60;99.90;;;;;;5143847;27;20125;-79
2023/09/06 00:38:56;;;;;;;11.68;10.57;;;18.50;99.90;;;;;;5137880;27;20110;-81
2023/09/06 00:41:23;;;;;;;8.55;7.65;;;18.60;99.90;;;;;;5136799;27;20046;-78
2023/09/06 00:43:49;;;;;;;10.05;9.15;;;18.50;99.90;;;;;;5095112;27;20047;-79
2023/09/06 00:46:15;;;;;;;11.57;10.43;;;18.50;99.90;;;;;;5129820;27;20161;-79
2023/09/06 00:48:41;;;;;;;10.70;9.70;;;18.50;99.90;;;;;;5134901;27;20063;-79
2023/09/06 00:51:07;;;;;;;11.15;9.68;;;18.50;99.90;;;;;;5104191;27;21265;-78
2023/09/06 00:53:33;;;;;;;9.38;8.68;;;18.50;99.90;;;;;;5125379;27;20130;-78
2023/09/06 00:56:03;;;;;;;7.72;7.03;;;18.40;99.90;;;;;;5118602;27;20051;-78
2023/09/06 00:58:29;;;;;;;8.45;7.68;;;18.40;99.90;;;;;;5125777;27;20047;-80
2023/09/06 01:00:55;;;;;;;9.27;8.38;;;18.40;99.90;;;;;;5131555;27;20050;-79
2023/09/06 01:03:21;;;;;;;7.45;6.47;;;18.40;99.90;;;;;;5129724;27;20120;-81
2023/09/06 01:05:55;;;;;;;5.68;5.18;;;18.30;99.90;;;;;;5089382;27;20220;-80
2023/09/06 01:08:46;;;;;;;6.78;6.18;;;18.30;99.90;;;;;;5129630;27;20047;-78
2023/09/06 01:11:22;;;;;;;7.85;6.38;;;18.30;99.90;;;;;;5142335;27;20102;-79
2023/09/06 01:13:56;;;;;;;5.35;4.93;;;18.30;99.90;;;;;;5144538;27;20141;-78
2023/09/06 01:16:38;;;;;;;5.70;5.10;;;18.20;99.90;;;;;;5129608;27;20047;-79
2023/09/06 01:19:06;;;;;;;5.25;4.68;;;18.20;99.90;;;;;;5141684;27;20102;-80
2023/09/06 01:22:10;;;;;;;5.78;5.28;;;18.10;99.90;;;;;;5117228;27;20054;-78
2023/09/06 01:24:37;;;;;;;6.35;5.75;;;18.00;99.90;;;;;;5124723;27;20399;-78
2023/09/06 01:27:04;;;;;;;6.95;4.95;;;18.00;99.90;;;;;;5122249;27;20119;-78
2023/09/06 01:29:31;;;;;;;7.65;5.20;;;18.40;99.90;;;;;;5106712;27;20057;-78
2023/09/06 01:31:57;;;;;;;6.30;5.80;;;17.90;99.90;;;;;;5128449;27;20163;-78
2023/09/06 01:34:22;;;;;;;6.18;5.68;;;18.00;99.90;;;;;;5135752;27;20125;-78
2023/09/06 01:36:49;;;;;;;8.18;7.40;;;17.90;99.90;;;;;;5138800;27;20042;-81
2023/09/06 01:39:14;;;;;;;6.88;6.22;;;17.90;99.90;;;;;;5112070;27;20050;-79
2023/09/06 01:41:40;;;;;;;5.60;5.10;;;17.80;99.90;;;;;;5142873;27;20402;-81
2023/09/06 01:44:06;;;;;;;7.20;6.50;;;17.80;99.90;;;;;;5138694;27;20043;-78
2023/09/06 01:46:32;;;;;;;7.13;6.47;;;17.70;99.90;;;;;;5117996;27;20790;-79
2023/09/06 01:48:59;;;;;;;8.55;7.55;;;17.70;99.90;;;;;;5137756;27;20043;-78
2023/09/06 01:51:25;;;;;;;7.72;7.00;;;17.60;99.90;;;;;;5142716;27;20061;-79
2023/09/06 01:53:51;;;;;;;8.10;6.63;;;17.60;99.90;;;;;;5138194;27;20130;-78
2023/09/06 01:56:17;;;;;;;7.30;6.60;;;17.70;99.90;;;;;;5106844;27;20051;-78
2023/09/06 01:58:42;;;;;;;10.98;8.23;;;17.60;99.90;;;;;;5140516;27;20130;-78
2023/09/06 02:01:09;;;;;;;7.40;6.53;;;17.60;99.90;;;;;;5124636;27;20039;-77
2023/09/06 02:03:35;;;;;;;8.98;8.05;;;17.60;99.90;;;;;;5135641;27;20051;-78
2023/09/06 02:06:01;;;;;;;6.82;6.13;;;17.60;99.90;;;;;;5105362;27;20559;-79
2023/09/06 02:08:27;;;;;;;7.32;6.72;;;17.60;99.90;;;;;;5140797;27;20043;-78
2023/09/06 02:10:52;;;;;;;7.70;7.00;;;17.50;99.90;;;;;;5129914;27;20050;-80
2023/09/06 02:13:18;;;;;;;7.40;5.88;;;17.50;99.90;;;;;;5124383;27;20050;-78
2023/09/06 02:15:44;;;;;;;7.25;6.50;;;17.50;99.90;;;;;;5140580;27;20456;-78
2023/09/06 02:18:10;;;;;;;9.52;7.35;;;17.40;99.90;;;;;;5134785;27;20054;-78
2023/09/06 02:20:39;;;;;;;7.88;7.18;;;17.40;99.90;;;;;;5135579;27;20410;-79
2023/09/06 02:23:05;;;;;;;7.07;6.28;;;17.40;99.90;;;;;;5129271;27;20054;-78
2023/09/06 02:25:31;;;;;;;7.75;7.03;;;17.40;99.90;;;;;;5123036;27;20069;-78
2023/09/06 02:27:58;;;;;;;7.90;7.00;;;17.40;99.90;;;;;;5131281;27;20098;-79
2023/09/06 02:30:23;;;;;;;7.15;6.45;;;17.40;99.90;;;;;;5128029;27;20493;-78
2023/09/06 02:32:50;;;;;;;11.00;9.48;;;17.40;99.90;;;;;;5131603;27;20043;-78
2023/09/06 02:35:16;;;;;;;8.13;7.38;;;17.40;99.90;;;;;;5140839;27;20047;-78
2023/09/06 02:37:41;;;;;;;8.55;7.72;;;17.30;99.90;;;;;;5121300;27;20047;-78
2023/09/06 02:40:16;;;;;;;10.65;8.75;;;17.30;99.90;;;;;;5130318;27;20081;-79
2023/09/06 02:42:42;;;;;;;8.63;7.47;;;17.40;99.90;;;;;;5137716;27;20782;-78
2023/09/06 02:45:11;;;;;;;10.10;8.90;;;17.40;99.90;;;;;;5140499;27;20051;-78
2023/09/06 02:47:52;;;;;;;10.40;9.50;;;17.40;99.90;;;;;;5128989;27;20043;-79
2023/09/06 02:50:23;;;;;;;9.55;8.65;;;17.40;99.90;;;;;;5121469;27;20387;-78
2023/09/06 02:52:50;;;;;;;8.77;7.88;;;17.30;99.90;;;;;;5124259;27;20105;-78
2023/09/06 02:55:16;;;;;;;8.15;7.35;;;17.20;99.90;;;;;;5121807;27;20046;-78
2023/09/06 02:57:43;;;;;;;7.55;6.85;;;17.20;99.90;;;;;;5135962;27;20838;-78
2023/09/06 03:00:25;;;;;;;7.43;6.72;;;17.10;99.90;;;;;;5115366;27;20860;-78
2023/09/06 03:02:55;;;;;;;13.32;7.65;;;17.20;99.90;;;;;;5116697;27;20661;-78
2023/09/06 03:05:21;;;;;;;9.35;8.45;;;17.10;99.90;;;;;;5135174;27;20051;-78
2023/09/06 03:07:53;;;;;;;7.45;6.75;;;17.00;99.90;;;;;;5116697;27;20042;-78
2023/09/06 03:10:20;;;;;;;7.70;7.07;;;17.00;99.90;;;;;;5116464;27;20978;-78
2023/09/06 03:12:57;;;;;;;7.80;6.95;;;17.00;99.90;;;;;;5132974;27;20050;-78
2023/09/06 03:15:24;;;;;;;7.25;6.68;;;17.00;99.90;;;;;;5134192;27;20054;-78
2023/09/06 03:17:51;;;;;;;5.97;5.28;;;16.90;99.90;;;;;;5104714;27;20043;-78
2023/09/06 03:20:42;;;;;;;6.50;5.90;;;16.90;99.90;;;;;;5120097;27;20050;-78
2023/09/06 03:23:19;;;;;;;6.38;5.75;;;16.90;99.90;;;;;;5121516;27;20051;-78
2023/09/06 03:25:49;;;;;;;5.57;5.07;;;16.90;99.90;;;;;;5104720;27;20046;-78
2023/09/06 03:28:18;;;;;;;5.60;5.10;;;16.80;99.90;;;;;;5132422;27;20183;-78
2023/09/06 03:30:44;;;;;;;5.65;5.25;;;16.80;99.90;;;;;;5127990;27;20046;-79
2023/09/06 03:33:10;;;;;;;5.95;5.43;;;16.80;99.90;;;;;;5142578;27;20047;-78
2023/09/06 03:35:36;;;;;;;7.40;5.68;;;16.80;99.90;;;;;;5140544;27;20061;-77
2023/09/06 03:38:02;;;;;;;6.57;6.07;;;16.80;99.90;;;;;;5141856;27;20134;-78
2023/09/06 03:40:35;;;;;;;7.63;6.05;;;16.70;99.90;;;;;;5121115;27;20043;-79
2023/09/06 03:43:53;;;;;;;5.78;5.28;;;16.70;99.90;;;;;;5125192;27;20059;-80
2023/09/06 03:45:50;;;;;;;6.53;6.03;;;16.70;99.90;;;;;;5096841;27;20093;-79
2023/09/06 03:48:19;;;;;;;6.20;5.70;;;16.70;99.90;;;;;;5131900;27;20512;-78
2023/09/06 03:50:46;;;;;;;5.50;5.10;;;16.60;99.90;;;;;;5134047;27;20051;-78
2023/09/06 03:53:13;;;;;;;7.03;6.45;;;16.60;99.90;;;;;;5143190;27;20038;-78
2023/09/06 03:55:41;;;;;;;6.00;5.50;;;16.60;99.90;;;;;;5119519;27;20057;-78
2023/09/06 03:58:07;;;;;;;6.35;5.80;;;16.60;99.90;;;;;;5127443;27;20055;-79
2023/09/06 04:00:39;;;;;;;6.03;5.53;;;16.50;99.90;;;;;;5145175;27;20101;-78
2023/09/06 04:03:07;;;;;;;6.13;5.63;;;16.60;99.90;;;;;;5145539;27;20109;-79
2023/09/06 04:05:33;;;;;;;5.32;4.93;;;16.50;99.90;;;;;;5136436;27;20050;-78
2023/09/06 04:08:03;;;;;;;5.75;5.28;;;16.50;99.90;;;;;;5126469;27;20043;-78
2023/09/06 04:10:37;;;;;;;5.20;4.80;;;16.50;99.90;;;;;;5126859;27;20059;-79
2023/09/06 04:13:07;;;;;;;5.25;4.85;;;16.40;99.90;;;;;;5106341;27;20103;-78
2023/09/06 04:15:37;;;;;;;6.68;6.15;;;16.40;99.90;;;;;;5139382;27;20434;-78
2023/09/06 04:18:09;;;;;;;8.13;7.30;;;16.40;99.90;;;;;;5136851;27;20069;-79
2023/09/06 04:20:36;;;;;;;7.63;7.03;;;16.40;99.90;;;;;;5125275;27;20043;-79
2023/09/06 04:23:04;;;;;;;7.20;6.60;;;16.40;99.90;;;;;;5125260;27;20078;-79
2023/09/06 04:25:34;;;;;;;8.38;6.13;;;16.40;99.90;;;;;;5126893;27;20487;-79
2023/09/06 04:28:07;;;;;;;7.35;6.47;;;16.40;99.90;;;;;;5145077;27;20081;-80
2023/09/06 04:30:34;;;;;;;;;;;16.40;99.90;;;;;;5110509;27;20058;-79
2023/09/06 04:32:59;;;;;;;7.35;6.65;;;16.30;99.90;;;;;;5135664;27;19926;-79
2023/09/06 04:35:58;;;;;;;6.45;5.78;;;16.30;99.90;;;;;;5127512;27;20517;-80
2023/09/06 04:38:23;;;;;;;6.95;6.05;;;16.30;99.90;;;;;;5113040;27;20696;-80
2023/09/06 04:40:51;;;;;;;5.70;4.80;;;16.30;99.90;;;;;;5115094;27;20051;-79
2023/09/06 04:43:18;;;;;;;7.00;6.30;;;16.30;99.90;;;;;;5124921;27;20489;-79
2023/09/06 04:45:44;;;;;;;7.30;6.60;;;16.30;99.90;;;;;;5146028;27;20809;-80
2023/09/06 04:48:12;;;;;;;6.38;5.88;;;16.30;99.90;;;;;;5131961;27;20055;-80
2023/09/06 04:50:41;;;;;;;6.60;5.97;;;16.30;99.90;;;;;;5145128;27;20088;-80
2023/09/06 04:53:11;;;;;;;6.97;6.40;;;16.20;99.90;;;;;;5110870;27;20159;-80
2023/09/06 04:55:39;;;;;;;6.75;6.25;;;16.20;99.90;;;;;;5121620;27;20035;-79
2023/09/06 04:58:06;;;;;;;5.88;5.38;;;16.10;99.90;;;;;;5134057;27;20059;-80
2023/09/06 05:00:36;;;;;;;6.05;5.55;;;16.10;99.90;;;;;;5133324;27;20043;-79
2023/09/06 05:03:04;;;;;;;5.20;4.70;;;16.10;99.90;;;;;;5133676;27;20051;-80
2023/09/06 05:05:30;;;;;;;5.32;4.93;;;16.00;99.90;;;;;;5113187;27;20054;-80
2023/09/06 05:07:56;;;;;;;4.75;4.40;;;16.00;99.90;;;;;;5106156;27;20051;-80
2023/09/06 05:10:21;;;;;;;5.18;4.78;;;15.80;99.90;;;;;;5132001;27;20053;-79
2023/09/06 05:12:47;;;;;;;4.70;4.30;;;15.80;99.90;;;;;;5122592;27;20054;-80
2023/09/06 05:15:13;;;;;;;5.13;4.65;;;15.80;99.90;;;;;;5122060;27;20571;-79
2023/09/06 05:17:40;;;;;;;5.15;4.38;;;15.80;99.90;;;;;;5137334;27;20114;-79
2023/09/06 05:20:25;;;;;;;5.65;5.07;;;15.90;99.90;;;;;;5112462;27;20172;-80
2023/09/06 05:22:51;;;;;;;5.47;4.97;;;15.90;99.90;;;;;;5125931;27;20129;-80
2023/09/06 05:25:17;;;;;;;5.72;4.85;;;15.80;99.90;;;;;;5140470;27;20090;-80
2023/09/06 05:27:43;;;;;;;5.82;4.65;;;15.90;99.90;;;;;;5122429;27;20117;-79
2023/09/06 05:30:09;;;;;;;5.50;5.00;;;15.90;99.90;;;;;;5114372;27;20062;-80
2023/09/06 05:32:35;;;;;;;6.10;5.60;;;15.90;99.90;;;;;;5141685;27;20162;-79
2023/09/06 05:35:00;;;;;;;7.00;5.70;;;15.50;99.90;;;;;;5133778;27;20892;-79
2023/09/06 05:37:26;;;;;;;7.18;6.00;;;15.90;99.90;;;;;;5130207;27;20670;-79
2023/09/06 05:39:52;;;;;;;6.85;6.25;;;15.90;99.90;;;;;;5141435;27;20065;-80
2023/09/06 05:42:17;;;;;;;7.35;6.25;;;15.90;99.90;;;;;;5124342;27;20078;-80
2023/09/06 05:44:43;;;;;;;5.88;5.30;;;16.00;99.90;;;;;;5140989;27;20046;-80
2023/09/06 05:47:09;;;;;;;7.85;6.22;;;16.10;99.90;;;;;;5136504;27;20043;-80
2023/09/06 05:49:37;;;;;;;5.93;5.40;;;16.10;99.90;;;;;;5104561;27;20506;-80
2023/09/06 05:52:03;;;;;;;6.20;5.63;;;16.20;99.90;;;;;;5138681;27;20115;-80
2023/09/06 05:54:29;;;;;;;5.22;4.70;;;16.20;99.90;;;;;;5130915;27;20047;-80
2023/09/06 05:56:55;;;;;;;6.47;5.90;;;16.30;99.90;;;;;;5139129;27;20046;-80
2023/09/06 05:59:21;;;;;;;7.93;7.20;;;16.40;99.90;;;;;;5103820;27;20479;-79
2023/09/06 06:01:46;;;;;;;8.18;7.03;;;16.40;99.90;;;;;;5127605;27;20042;-80
2023/09/06 06:04:13;;;;;;;9.00;7.13;;;16.50;99.90;;;;;;5124212;27;20108;-79
2023/09/06 06:06:41;;;;;;;7.82;7.05;;;16.60;99.90;;;;;;5122336;27;20652;-80
2023/09/06 06:09:11;;;;;;;9.05;6.80;;;16.70;99.90;;;;;;5134330;27;20046;-80
2023/09/06 06:11:38;;;;;;;7.60;6.90;;;16.70;99.90;;;;;;5135461;27;20149;-79
2023/09/06 06:14:04;;;;;;;9.30;8.38;;;16.80;99.90;;;;;;5111723;27;20081;-80
2023/09/06 06:16:30;;;;;;;7.95;7.22;;;16.90;99.90;;;;;;5142391;27;20074;-79
2023/09/06 06:18:56;;;;;;;10.70;7.57;;;16.90;99.90;;;;;;5120342;27;20234;-80
2023/09/06 06:21:24;;;;;;;7.00;6.30;;;17.00;99.90;;;;;;5141185;27;20431;-79
2023/09/06 06:23:50;;;;;;;10.30;8.13;;;17.10;99.90;;;;;;5127220;27;20043;-79
2023/09/06 06:26:19;;;;;;;7.75;7.05;;;17.20;99.90;;;;;;5106547;27;20043;-79
2023/09/06 06:28:45;;;;;;;8.65;7.82;;;17.20;99.90;;;;;;5134781;27;20197;-79
2023/09/06 06:31:12;;;;;;;9.48;8.18;;;17.30;99.90;;;;;;5117186;27;20123;-79
2023/09/06 06:33:38;;;;;;;7.55;6.75;;;17.40;99.90;;;;;;5122688;27;20047;-79
2023/09/06 06:36:05;;;;;;;9.82;8.15;;;17.50;99.90;;;;;;5131786;27;20043;-80
2023/09/06 06:38:31;;;;;;;8.57;7.28;;;17.60;99.90;;;;;;5135151;27;20058;-80
2023/09/06 06:40:57;;;;;;;8.18;7.47;;;17.70;99.90;;;;;;5124435;27;20075;-76
2023/09/06 06:43:23;;;;;;;8.73;7.20;;;17.70;99.90;;;;;;5129875;27;20126;-74
2023/09/06 06:45:54;;;;;;;10.48;6.93;;;17.80;99.90;;;;;;5132658;27;20145;-76
2023/09/06 06:48:20;;;;;;;7.85;7.10;;;17.90;99.90;;;;;;5139510;27;20043;-78
2023/09/06 06:50:46;;;;;;;9.13;7.25;;;18.10;99.90;;;;;;5107937;27;20118;-79
2023/09/06 06:53:11;;;;;;;8.02;7.00;;;18.20;99.90;;;;;;5102414;27;20130;-76
2023/09/06 06:55:38;;;;;;;7.88;7.10;;;18.30;99.90;;;;;;5128312;27;20043;-78
2023/09/06 06:58:06;;;;;;;10.05;7.78;;;18.50;99.90;;;;;;5125824;27;20134;-78
2023/09/06 07:00:31;;;;;;;8.38;7.38;;;18.50;99.90;;;;;;5096565;27;20106;-77
2023/09/06 07:02:58;;;;;;;10.23;7.35;;;18.60;99.90;;;;;;5122765;27;20064;-78
2023/09/06 07:05:24;;;;;;;10.73;7.07;;;18.80;99.90;;;;;;5138244;27;20570;-77
2023/09/06 07:07:50;;;;;;;12.40;8.35;;;18.90;99.90;;;;;;5135860;27;20158;-77
2023/09/06 07:10:16;;;;;;;7.00;6.30;;;19.10;99.90;;;;;;5138900;27;20587;-78
2023/09/06 07:12:42;;;;;;;7.43;6.72;;;19.30;99.90;;;;;;5135447;27;20475;-77
2023/09/06 07:15:09;;;;;;;8.18;7.05;;;19.50;99.90;;;;;;5095572;27;20673;-78
2023/09/06 07:17:35;;;;;;;6.78;6.18;;;19.70;99.90;;;;;;5110636;27;20754;-81
2023/09/06 07:20:02;;;;;;;8.82;6.75;;;19.90;99.90;;;;;;5128449;27;20057;-77
2023/09/06 07:22:27;;;;;;;6.63;5.97;;;20.50;99.90;;;;;;5107884;27;20061;-82
2023/09/06 07:24:53;;;;;;;6.85;5.68;;;21.70;99.90;;;;;;5104530;27;20047;-78
2023/09/06 07:27:20;;;;;;;6.15;5.57;;;23.50;99.90;;;;;;5105221;27;20042;-79
2023/09/06 07:29:48;;;;;;;7.40;4.97;;;25.10;99.90;;;;;;5121728;27;20051;-79
2023/09/06 07:32:13;;;;;;;5.78;5.18;;;26.60;99.90;;;;;;5123187;27;20560;-78
2023/09/06 07:34:39;;;;;;;5.85;4.65;;;27.60;99.90;;;;;;5138274;27;20550;-78
2023/09/06 07:37:05;;;;;;;5.32;4.82;;;28.40;99.90;;;;;;5136834;27;20702;-79
2023/09/06 07:39:30;;;;;;;6.55;5.13;;;29.20;99.90;;;;;;5139808;27;20046;-79
2023/09/06 07:41:57;;;;;;;5.18;4.68;;;29.90;99.90;;;;;;5137977;27;20083;-78
2023/09/06 07:44:22;;;;;;;5.15;4.65;;;30.40;99.90;;;;;;5140041;27;20086;-79
2023/09/06 07:46:48;;;;;;;7.45;4.78;;;30.70;99.90;;;;;;5134671;27;20133;-80
2023/09/06 07:49:20;;;;;;;5.38;4.53;;;31.00;99.90;;;;;;5121684;27;20067;-81
2023/09/06 07:51:46;;;;;;;5.45;4.47;;;31.40;98.90;;;;;;5104749;27;21179;-79
2023/09/06 07:54:12;;;;;;;7.30;4.50;;;31.70;98.30;;;;;;5111418;28;20063;-78
2023/09/06 07:56:39;;;;;;;5.15;4.03;;;31.90;97.80;;;;;;5123136;27;20554;-78
2023/09/06 07:59:08;;;;;;;4.30;3.90;;;32.30;97.50;;;;;;5139734;27;20148;-79
2023/09/06 08:01:34;;;;;;;3.80;3.50;;;32.50;96.80;;;;;;5107598;27;20058;-77
2023/09/06 08:03:59;;;;;;;6.18;4.00;;;32.80;96.10;;;;;;5117496;28;20928;-79
2023/09/06 08:06:25;;;;;;;4.05;3.55;;;33.00;95.50;;;;;;5135656;27;20053;-80
2023/09/06 08:08:51;;;;;;;7.30;4.57;;;33.00;95.10;;;;;;5137051;27;20046;-79
2023/09/06 08:11:17;;;;;;;4.35;3.33;;;33.20;94.80;;;;;;5139972;27;20433;-79
2023/09/06 08:13:43;;;;;;;5.35;3.33;;;33.50;94.60;;;;;;5139776;27;20095;-79
2023/09/06 08:16:10;;;;;;;4.10;3.70;;;33.50;94.20;;;;;;5124974;27;20047;-78
2023/09/06 08:18:36;;;;;;;3.33;2.72;;;33.70;93.80;;;;;;5142460;27;20043;-78
2023/09/06 08:21:02;;;;;;;4.95;3.40;;;33.90;93.70;;;;;;5140409;27;20053;-78
2023/09/06 08:23:28;;;;;;;4.47;3.17;;;34.00;93.40;;;;;;5122655;27;20054;-81
2023/09/06 08:25:55;;;;;;;3.72;2.95;;;34.00;93.00;;;;;;5140350;27;20074;-80
2023/09/06 08:28:21;;;;;;;3.83;2.70;;;34.10;92.80;;;;;;5123049;27;20824;-79
2023/09/06 08:30:47;;;;;;;2.72;2.50;;;33.90;92.40;;;;;;5107521;27;20051;-80
2023/09/06 08:33:13;;;;;;;6.63;3.40;;;34.10;92.40;;;;;;5145555;27;20058;-78
2023/09/06 08:35:39;;;;;;;5.18;3.10;;;34.20;92.10;;;;;;5137972;27;20058;-78
2023/09/06 08:38:05;;;;;;;3.25;2.95;;;34.40;91.90;;;;;;5139000;27;20050;-80
2023/09/06 08:40:31;;;;;;;3.55;2.83;;;34.40;91.70;;;;;;5144891;27;20042;-80
2023/09/06 08:43:03;;;;;;;4.25;2.85;;;34.70;91.70;;;;;;5109546;27;20573;-82
2023/09/06 08:45:29;;;;;;;3.67;2.38;;;34.70;91.30;;;;;;5132783;27;20054;-79
2023/09/06 08:47:55;;;;;;;2.85;2.55;;;34.70;91.50;;;;;;5135400;27;20054;-79
2023/09/06 08:50:21;;;;;;;3.13;2.72;;;34.90;91.60;;;;;;5136347;27;20035;-79
2023/09/06 08:52:50;;;;;;;2.85;2.65;;;35.20;91.60;;;;;;5135428;27;20050;-79
2023/09/06 08:55:17;;;;;;;3.90;2.95;;;35.50;91.40;;;;;;5129410;27;20091;-80
2023/09/06 08:57:44;;;;;;;2.70;2.50;;;35.60;91.30;;;;;;5145452;27;20183;-80
2023/09/06 09:00:11;;;;;;;2.42;2.13;;;35.90;91.10;;;;;;5113126;27;20115;-80
2023/09/06 09:02:40;;;;;;;3.78;2.72;;;36.50;91.20;;;;;;5135691;27;20069;-80
2023/09/06 09:05:06;;;;;;;3.05;2.70;;;36.00;90.70;;;;;;5139905;27;20055;-81
2023/09/06 09:07:32;;;;;;;3.72;2.58;;;36.30;90.70;;;;;;5114791;27;20067;-81
2023/09/06 09:09:58;;;;;;;2.72;2.53;;;36.40;90.70;;;;;;5143278;27;20733;-82
2023/09/06 09:12:25;;;;;;;4.35;2.30;;;36.60;90.50;;;;;;5145271;27;20561;-79
2023/09/06 09:14:54;;;;;;;2.67;2.00;;;36.60;89.50;;;;;;5142686;27;20061;-80
2023/09/06 09:17:21;;;;;;;1.88;1.77;;;36.50;87.10;;;;;;5142914;27;20053;-80
2023/09/06 09:19:49;;;;;;;2.00;1.85;;;36.70;86.00;;;;;;5135103;27;20051;-80
2023/09/06 09:22:20;;;;;;;3.67;2.38;;;36.20;83.90;;;;;;5124407;27;20051;-79
2023/09/06 09:24:47;;;;;;;2.43;1.80;;;35.70;84.50;;;;;;5134925;27;20039;-80
2023/09/06 09:27:12;;;;;;;4.03;1.90;;;36.30;84.40;;;;;;5107313;27;21131;-79
2023/09/06 09:29:38;;;;;;;3.17;2.10;;;36.30;83.40;;;;;;5142756;27;20054;-80
2023/09/06 09:32:04;;;;;;;3.85;1.98;;;36.40;83.10;;;;;;5140560;27;20069;-80
2023/09/06 09:34:31;;;;;;;1.88;1.67;;;36.80;83.30;;;;;;5144650;27;20080;-80
2023/09/06 09:36:57;;;;;;;5.63;2.15;;;37.00;82.90;;;;;;5127959;27;20077;-81
2023/09/06 09:39:26;;;;;;;2.30;2.10;;;37.10;81.70;;;;;;5123233;27;21098;-80
2023/09/06 09:41:59;;;;;;;3.22;1.90;;;36.90;80.80;;;;;;5132970;27;20035;-79
2023/09/06 09:44:25;;;;;;;3.78;2.15;;;37.20;81.20;;;;;;5139083;27;20073;-79
2023/09/06 09:46:54;;;;;;;2.13;1.90;;;37.10;80.60;;;;;;5136636;27;20479;-78
2023/09/06 09:49:21;;;;;;;2.30;2.10;;;37.00;79.60;;;;;;5132973;27;20058;-78
2023/09/06 09:51:50;;;;;;;3.30;2.13;;;37.00;79.60;;;;;;5134680;27;20035;-79
2023/09/06 09:54:17;;;;;;;3.22;2.10;;;37.10;80.30;;;;;;5139645;27;20050;-78
2023/09/06 09:56:51;;;;;;;2.85;2.10;;;37.30;79.30;;;;;;5141183;27;20034;-78
2023/09/06 09:59:20;;;;;;;2.65;2.05;;;37.10;79.20;;;;;;5122226;27;20827;-77
2023/09/06 10:01:51;;;;;;;2.22;2.03;;;37.00;78.50;;;;;;5134365;27;20110;-78
2023/09/06 10:04:20;;;;;;;2.97;1.98;;;37.00;78.00;;;;;;5135634;27;20058;-82
2023/09/06 10:06:47;;;;;;;3.08;1.92;;;37.20;77.80;;;;;;5135231;27;20043;-78
2023/09/06 10:09:16;;;;;;;3.28;2.20;;;37.60;78.40;;;;;;5141782;27;20083;-79
2023/09/06 10:11:42;;;;;;;2.22;2.03;;;37.70;77.80;;;;;;5141150;27;20050;-78
2023/09/06 10:14:11;;;;;;;4.32;2.15;;;37.60;77.00;;;;;;5138926;27;20055;-81
2023/09/06 10:16:38;;;;;;;2.15;1.95;;;37.50;76.30;;;;;;5139847;27;20043;-77
2023/09/06 10:19:04;;;;;;;5.72;1.88;;;37.50;76.10;;;;;;5126299;27;20091;-77
2023/09/06 10:21:31;;;;;;;2.42;2.08;;;37.70;76.10;;;;;;5130183;27;20066;-81
2023/09/06 10:23:58;;;;;;;2.45;1.88;;;37.90;76.00;;;;;;5137297;27;20091;-81
2023/09/06 10:26:29;;;;;;;4.20;2.38;;;38.20;76.00;;;;;;5128505;27;20573;-79
2023/09/06 10:28:58;;;;;;;2.30;2.08;;;38.50;75.60;;;;;;5120245;27;20062;-78
2023/09/06 10:31:35;;;;;;;2.30;2.10;;;38.60;74.70;;;;;;5113276;27;20134;-79
2023/09/06 10:34:00;;;;;;;4.22;2.30;;;38.60;74.20;;;;;;5123226;27;20046;-78
2023/09/06 10:36:29;;;;;;;2.83;1.90;;;38.60;74.30;;;;;;5131641;27;20058;-78
2023/09/06 10:38:56;;;;;;;2.28;2.08;;;38.80;74.30;;;;;;5127834;27;20059;-78
2023/09/06 10:41:23;;;;;;;2.45;1.77;;;38.80;74.10;;;;;;5111424;27;20059;-76
2023/09/06 10:43:48;;;;;;;1.95;1.80;;;38.70;73.30;;;;;;5123588;27;20604;-80
2023/09/06 10:46:26;;;;;;;2.55;2.35;;;38.20;72.80;;;;;;5134475;27;20055;-79
2023/09/06 10:49:17;;;;;;;4.38;1.92;;;37.60;73.10;;;;;;5128188;27;20074;-78
2023/09/06 10:52:06;;;;;;;2.33;1.90;;;36.40;73.80;;;;;;5136145;27;20047;-78
2023/09/06 10:54:40;;;;;;;3.92;2.30;;;35.00;75.00;;;;;;5139464;27;20050;-78
2023/09/06 10:57:14;;;;;;;2.85;1.90;;;33.90;75.50;;;;;;5129867;27;20055;-78
2023/09/06 10:59:55;;;;;;;3.72;2.40;;;33.00;75.80;;;;;;5136092;27;20130;-78
2023/09/06 11:02:21;;;;;;;2.37;1.83;;;32.50;77.00;;;;;;5140768;27;20388;-79
2023/09/06 11:04:47;;;;;;;4.07;2.13;;;31.90;77.10;;;;;;5136549;27;20053;-78
2023/09/06 11:07:13;;;;;;;3.78;1.95;;;31.60;77.20;;;;;;5132287;27;20124;-79
2023/09/06 11:09:49;;;;;;;1.88;1.65;;;31.40;78.10;;;;;;5140038;27;20050;-77
2023/09/06 11:12:14;;;;;;;2.03;1.92;;;31.30;79.30;;;;;;5130239;27;20807;-79
2023/09/06 11:14:42;;;;;;;2.42;2.22;;;31.10;78.60;;;;;;5119834;27;20125;-78
2023/09/06 11:17:08;;;;;;;2.17;1.90;;;31.10;79.40;;;;;;5135918;27;20565;-79
2023/09/06 11:19:36;;;;;;;2.55;2.22;;;30.90;78.80;;;;;;5137927;27;20091;-78
2023/09/06 11:22:08;;;;;;;4.35;2.10;;;30.80;79.10;;;;;;5134319;27;20108;-78
2023/09/06 11:24:38;;;;;;;4.03;2.50;;;30.70;80.30;;;;;;5129092;27;20041;-79
2023/09/06 11:27:17;;;;;;;2.95;1.90;;;30.70;79.50;;;;;;5135842;27;20057;-77
2023/09/06 11:29:43;;;;;;;2.25;2.05;;;30.60;81.00;;;;;;5112810;27;20055;-77
2023/09/06 11:32:11;;;;;;;6.20;3.00;;;30.50;80.40;;;;;;5141308;27;20050;-77
2023/09/06 11:34:45;;;;;;;4.95;4.05;;;30.50;80.70;;;;;;5132537;27;20051;-77
2023/09/06 11:37:15;;;;;;;2.50;2.15;;;30.50;81.30;;;;;;5125704;27;20039;-76
2023/09/06 11:39:45;;;;;;;4.07;2.28;;;30.50;81.80;;;;;;5128940;27;20088;-77
2023/09/06 11:42:14;;;;;;;4.70;2.80;;;30.60;82.20;;;;;;5140163;27;20085;-78
2023/09/06 11:44:45;;;;;;;4.30;2.45;;;30.50;81.60;;;;;;5103714;27;20774;-77
2023/09/06 11:47:11;;;;;;;4.00;2.35;;;30.50;81.70;;;;;;5121730;27;20696;-78
2023/09/06 11:49:39;;;;;;;2.75;2.20;;;30.50;82.20;;;;;;5142066;27;20038;-76
2023/09/06 11:52:06;;;;;;;2.45;2.20;;;30.50;81.90;;;;;;5139074;27;20043;-77
2023/09/06 11:54:37;;;;;;;3.03;2.03;;;30.50;82.20;;;;;;5129418;27;20058;-78
2023/09/06 11:57:04;;;;;;;3.50;2.70;;;30.50;82.70;;;;;;5140043;27;20562;-76
2023/09/06 11:59:32;;;;;;;3.28;2.05;;;30.60;83.00;;;;;;5141285;27;20050;-76
2023/09/06 12:02:02;;;;;;;3.15;2.38;;;30.60;83.20;;;;;;5128958;27;20161;-78
2023/09/06 12:04:29;;;;;;;3.60;2.28;;;30.70;84.00;;;;;;5125756;27;20107;-78
2023/09/06 12:06:56;;;;;;;3.88;2.40;;;30.70;83.60;;;;;;5126671;27;20046;-77
2023/09/06 12:09:23;;;;;;;3.47;2.30;;;30.80;82.90;;;;;;5143102;27;20467;-78
2023/09/06 12:11:50;;;;;;;2.95;2.00;;;30.80;83.40;;;;;;5109300;27;20089;-80
2023/09/06 12:14:16;;;;;;;2.35;1.98;;;30.80;83.40;;;;;;5142373;27;20131;-78
2023/09/06 12:16:42;;;;;;;2.92;2.13;;;30.80;83.40;;;;;;5115459;27;20046;-79
2023/09/06 12:19:16;;;;;;;2.25;1.92;;;30.80;83.20;;;;;;5142081;27;20053;-79
2023/09/06 12:21:42;;;;;;;5.65;2.38;;;30.90;84.30;;;;;;5146194;27;20059;-80
2023/09/06 12:24:07;;;;;;;5.65;2.20;;;30.90;84.80;;;;;;5125641;27;20053;-79
2023/09/06 12:26:33;;;;;;;3.50;2.10;;;31.00;84.60;;;;;;5126895;27;20103;-79
2023/09/06 12:28:59;;;;;;;3.28;2.05;;;31.00;83.40;;;;;;5124416;27;20047;-79
2023/09/06 12:31:25;;;;;;;3.22;2.40;;;31.00;83.30;;;;;;5145618;27;20102;-82
2023/09/06 12:33:51;;;;;;;2.50;2.22;;;31.00;83.10;;;;;;5139898;27;20039;-80
2023/09/06 12:36:17;;;;;;;3.15;2.17;;;31.10;83.80;;;;;;5116418;27;20542;-80
2023/09/06 12:38:43;;;;;;;3.05;2.17;;;31.10;83.90;;;;;;5139298;27;20469;-80
2023/09/06 12:41:09;;;;;;;3.53;2.25;;;31.20;83.70;;;;;;5135976;27;20490;-79
2023/09/06 12:43:36;;;;;;;2.03;1.90;;;30.40;82.20;;;;;;5141048;27;20134;-79
2023/09/06 12:46:02;;;;;;;2.33;1.88;;;31.30;82.90;;;;;;5115389;27;20761;-80
2023/09/06 12:48:28;;;;;;;4.60;2.55;;;31.30;82.90;;;;;;5139004;27;20392;-79
2023/09/06 12:50:54;;;;;;;3.67;2.40;;;31.30;83.00;;;;;;5136513;27;20047;-82